Time;durP1;ratioP1;P1;durP2;ratioP2;P2;SDS_P1;SDS_P2;PMS_P1;PMS_P2;Temp;Humidity;BMP_temperature;BMP_pressure;BME280_temperature;BME280_humidity;BME280_pressure;Samples;Min_cycle;Max_cycle;Signal;HPM_P1;HPM_P2
2021/04/08 00:02:05;;;;;;;0.70;0.70;;;5.50;29.40;;;;;;5052420;28;20084;-75
2021/04/08 00:04:31;;;;;;;1.88;1.00;;;5.40;29.30;;;;;;5051215;28;20082;-76
2021/04/08 00:06:57;;;;;;;1.15;1.00;;;5.50;29.20;;;;;;5052314;28;20494;-75
2021/04/08 00:09:23;;;;;;;1.38;0.82;;;5.40;29.00;;;;;;5051081;28;20549;-75
2021/04/08 00:11:49;;;;;;;1.15;0.82;;;5.50;29.20;;;;;;5052227;28;20021;-75
2021/04/08 00:14:15;;;;;;;1.77;0.90;;;5.30;29.40;;;;;;5052173;28;20032;-75
2021/04/08 00:16:41;;;;;;;1.52;1.00;;;5.40;29.50;;;;;;5052290;28;20116;-75
2021/04/08 00:19:08;;;;;;;1.00;0.88;;;5.50;29.60;;;;;;5051587;28;20107;-75
2021/04/08 00:21:34;;;;;;;1.23;0.82;;;5.50;29.50;;;;;;5050317;28;20032;-75
2021/04/08 00:24:00;;;;;;;4.13;1.38;;;5.50;29.60;;;;;;5068552;28;20144;-75
2021/04/08 00:26:25;;;;;;;2.15;0.80;;;5.50;29.70;;;;;;5071206;28;20104;-75
2021/04/08 00:28:51;;;;;;;2.08;0.90;;;5.50;29.80;;;;;;5069820;28;20032;-75
2021/04/08 00:31:17;;;;;;;1.63;1.13;;;5.50;29.70;;;;;;5071381;28;20023;-75
2021/04/08 00:33:43;;;;;;;1.92;1.20;;;5.50;29.60;;;;;;5069844;28;20025;-75
2021/04/08 00:36:08;;;;;;;1.80;1.00;;;5.40;29.70;;;;;;5070600;28;20082;-75
2021/04/08 00:38:34;;;;;;;1.38;1.15;;;5.40;29.70;;;;;;5070770;28;20512;-75
2021/04/08 00:41:01;;;;;;;3.72;1.25;;;5.50;29.70;;;;;;5070475;28;20031;-75
2021/04/08 00:43:27;;;;;;;1.60;1.05;;;5.60;29.70;;;;;;5072392;28;20028;-75
2021/04/08 00:45:53;;;;;;;1.88;1.00;;;5.60;29.90;;;;;;5072009;28;20386;-75
2021/04/08 00:48:18;;;;;;;1.15;0.98;;;5.60;29.90;;;;;;5072178;28;20017;-75
2021/04/08 00:50:44;;;;;;;1.67;1.00;;;5.60;30.00;;;;;;5071677;28;20031;-75
2021/04/08 00:53:17;;;;;;;4.43;0.82;;;5.60;29.70;;;;;;5072221;28;20668;-75
2021/04/08 00:55:45;;;;;;;0.65;0.65;;;5.60;29.70;;;;;;5071689;28;20118;-75
2021/04/08 00:58:14;;;;;;;2.47;1.00;;;5.60;29.70;;;;;;5067926;28;20029;-75
2021/04/08 01:00:42;;;;;;;2.42;0.90;;;5.50;29.70;;;;;;5071756;28;20017;-75
2021/04/08 01:03:08;;;;;;;4.40;0.93;;;5.40;29.70;;;;;;5073915;28;20127;-75
2021/04/08 01:05:34;;;;;;;1.48;1.23;;;5.30;29.80;;;;;;5074159;28;20060;-75
2021/04/08 01:08:01;;;;;;;1.33;0.88;;;5.30;30.00;;;;;;5074285;28;20051;-75
2021/04/08 01:10:27;;;;;;;0.82;0.82;;;5.40;30.00;;;;;;5074047;28;20034;-75
2021/04/08 01:12:56;;;;;;;1.50;0.88;;;5.40;30.00;;;;;;5073937;28;20119;-75
2021/04/08 01:15:23;;;;;;;1.08;0.85;;;5.30;30.00;;;;;;5074827;28;20500;-75
2021/04/08 01:18:17;;;;;;;1.00;0.98;;;5.30;30.00;;;;;;5075505;28;20402;-75
2021/04/08 01:21:14;;;;;;;2.20;0.77;;;5.40;29.80;;;;;;5073750;28;20051;-75
2021/04/08 01:24:05;;;;;;;0.93;0.90;;;5.50;29.80;;;;;;5074087;28;20068;-76
2021/04/08 01:26:52;;;;;;;1.38;0.52;;;5.50;29.70;;;;;;5073956;28;20101;-75
2021/04/08 01:29:40;;;;;;;1.75;0.88;;;5.50;29.60;;;;;;5069443;28;20047;-75
2021/04/08 01:32:07;;;;;;;1.10;1.00;;;5.50;29.50;;;;;;5073919;28;20422;-76
2021/04/08 01:34:35;;;;;;;1.08;0.60;;;5.60;29.70;;;;;;5075371;28;20025;-75
2021/04/08 01:37:07;;;;;;;1.13;0.70;;;5.60;29.80;;;;;;5074770;28;20020;-75
2021/04/08 01:39:36;;;;;;;2.28;0.68;;;5.50;29.70;;;;;;5073986;28;20016;-76
2021/04/08 01:42:03;;;;;;;0.98;0.80;;;5.50;29.80;;;;;;5074973;28;20020;-75
2021/04/08 01:44:30;;;;;;;0.63;0.60;;;5.50;29.90;;;;;;5074756;28;20032;-76
2021/04/08 01:47:00;;;;;;;0.50;0.50;;;5.50;29.80;;;;;;5074985;28;20032;-75
2021/04/08 01:49:33;;;;;;;0.95;0.75;;;5.50;30.50;;;;;;5074815;28;20035;-75
2021/04/08 01:52:00;;;;;;;1.05;0.82;;;5.50;30.30;;;;;;5073410;28;20051;-75
2021/04/08 01:54:31;;;;;;;0.60;0.60;;;5.40;30.60;;;;;;5074485;28;20039;-75
2021/04/08 01:57:01;;;;;;;0.70;0.70;;;5.40;30.50;;;;;;5074417;28;20492;-75
2021/04/08 01:59:28;;;;;;;2.38;0.80;;;5.40;30.10;;;;;;5073187;28;20073;-75
2021/04/08 02:01:57;;;;;;;0.60;0.60;;;5.40;30.10;;;;;;5073622;28;20024;-76
2021/04/08 02:04:26;;;;;;;0.75;0.70;;;5.50;30.00;;;;;;5073117;28;20036;-76
2021/04/08 02:06:52;;;;;;;1.17;0.70;;;5.50;29.80;;;;;;5074173;28;20039;-75
2021/04/08 02:09:21;;;;;;;0.60;0.60;;;5.50;29.70;;;;;;5072091;28;20031;-75
2021/04/08 02:11:47;;;;;;;0.88;0.75;;;5.60;29.90;;;;;;5074617;28;20024;-75
2021/04/08 02:14:15;;;;;;;2.13;0.52;;;5.60;29.90;;;;;;5073118;28;20456;-75
2021/04/08 02:16:45;;;;;;;1.23;0.70;;;5.60;31.40;;;;;;5075359;28;20024;-76
2021/04/08 02:19:12;;;;;;;0.68;0.55;;;5.60;30.40;;;;;;5074216;28;20025;-75
2021/04/08 02:21:38;;;;;;;0.70;0.70;;;5.50;31.60;;;;;;5074331;28;20046;-75
2021/04/08 02:24:04;;;;;;;0.70;0.68;;;5.50;31.10;;;;;;5074039;28;20055;-75
2021/04/08 02:26:31;;;;;;;1.50;0.90;;;5.50;31.50;;;;;;5074014;28;20074;-76
2021/04/08 02:28:59;;;;;;;1.33;0.80;;;5.50;31.80;;;;;;5060265;28;20029;-75
2021/04/08 02:31:27;;;;;;;0.82;0.73;;;5.50;31.10;;;;;;5061012;28;20020;-75
2021/04/08 02:33:53;;;;;;;1.25;1.00;;;5.60;31.10;;;;;;5072651;28;20039;-76
2021/04/08 02:36:18;;;;;;;0.90;0.80;;;5.60;30.90;;;;;;5072697;28;20426;-75
2021/04/08 02:38:44;;;;;;;0.70;0.70;;;5.50;31.70;;;;;;5072341;28;20386;-75
2021/04/08 02:41:10;;;;;;;4.30;1.40;;;5.50;31.00;;;;;;5073827;28;20538;-75
2021/04/08 02:43:37;;;;;;;0.85;0.85;;;5.50;30.70;;;;;;5073403;28;20033;-75
2021/04/08 02:46:03;;;;;;;0.80;0.77;;;5.60;31.10;;;;;;5073523;28;20036;-75
2021/04/08 02:48:32;;;;;;;1.27;0.90;;;5.60;31.00;;;;;;5073453;28;20469;-75
2021/04/08 02:51:07;;;;;;;1.38;0.65;;;5.60;30.60;;;;;;5073642;28;20082;-75
2021/04/08 02:53:58;;;;;;;1.25;0.70;;;5.50;30.80;;;;;;5073244;28;20099;-75
2021/04/08 02:56:39;;;;;;;0.55;0.50;;;5.50;31.10;;;;;;5071786;28;20035;-75
2021/04/08 02:59:29;;;;;;;0.70;0.70;;;5.50;30.60;;;;;;5073163;28;20032;-75
2021/04/08 03:02:05;;;;;;;1.35;1.13;;;5.60;30.40;;;;;;5073020;28;20405;-75
2021/04/08 03:04:36;;;;;;;1.08;0.98;;;5.50;30.90;;;;;;5073356;28;20041;-75
2021/04/08 03:07:03;;;;;;;1.50;0.90;;;5.50;32.30;;;;;;5073159;28;20044;-75
2021/04/08 03:09:35;;;;;;;0.75;0.75;;;5.50;32.70;;;;;;5071711;28;20028;-75
2021/04/08 03:12:02;;;;;;;;;;;5.40;33.00;;;;;;5072491;28;20025;-75
2021/04/08 03:14:30;;;;;;;0.73;0.73;;;5.40;32.80;;;;;;5073018;28;20534;-75
2021/04/08 03:16:58;;;;;;;0.60;0.60;;;5.40;32.50;;;;;;5071650;28;20032;-75
2021/04/08 03:19:25;;;;;;;1.65;1.13;;;5.40;31.80;;;;;;5071346;28;20035;-75
2021/04/08 03:21:51;;;;;;;0.63;0.63;;;5.40;31.70;;;;;;5072370;28;20035;-75
2021/04/08 03:24:20;;;;;;;0.82;0.63;;;5.50;32.30;;;;;;5072958;28;20105;-75
2021/04/08 03:26:47;;;;;;;0.73;0.65;;;5.30;32.40;;;;;;5071634;28;20054;-75
2021/04/08 03:29:14;;;;;;;1.98;0.93;;;5.30;32.70;;;;;;5072609;28;20052;-76
2021/04/08 03:31:44;;;;;;;1.90;0.70;;;5.30;32.90;;;;;;5072688;28;20078;-75
2021/04/08 03:34:11;;;;;;;1.58;0.80;;;5.30;33.40;;;;;;5072825;28;20028;-75
2021/04/08 03:36:38;;;;;;;0.95;0.95;;;5.30;33.60;;;;;;5073039;28;20107;-75
2021/04/08 03:39:07;;;;;;;0.55;0.55;;;5.30;33.70;;;;;;5072757;28;20033;-75
2021/04/08 03:41:38;;;;;;;1.70;0.45;;;5.30;33.50;;;;;;5072787;28;20050;-76
2021/04/08 03:44:07;;;;;;;0.60;0.60;;;5.30;33.00;;;;;;5071427;28;20047;-76
2021/04/08 03:46:36;;;;;;;2.10;0.80;;;5.30;32.80;;;;;;5071261;28;20082;-75
2021/04/08 03:49:03;;;;;;;0.70;0.70;;;5.20;32.60;;;;;;5072875;28;20028;-75
2021/04/08 03:51:29;;;;;;;5.07;1.00;;;5.20;32.70;;;;;;5072784;28;20466;-75
2021/04/08 03:53:56;;;;;;;0.90;0.90;;;5.20;32.70;;;;;;5071362;28;20059;-76
2021/04/08 03:56:24;;;;;;;0.65;0.65;;;5.10;32.70;;;;;;5072690;28;20475;-75
2021/04/08 03:58:52;;;;;;;1.23;0.93;;;5.10;32.70;;;;;;5060149;28;20113;-75
2021/04/08 04:01:19;;;;;;;1.20;0.70;;;5.20;32.80;;;;;;5053278;28;20126;-75
2021/04/08 04:03:44;;;;;;;0.68;0.68;;;5.30;32.90;;;;;;5072744;28;20025;-75
2021/04/08 04:06:11;;;;;;;1.10;0.70;;;5.30;33.20;;;;;;5072647;28;20155;-75
2021/04/08 04:08:37;;;;;;;0.90;0.90;;;5.40;32.80;;;;;;5071361;28;20429;-75
2021/04/08 04:11:04;;;;;;;1.00;0.73;;;5.30;34.40;;;;;;5071504;28;20025;-75
2021/04/08 04:13:31;;;;;;;0.70;0.70;;;5.10;35.30;;;;;;5072523;28;20107;-75
2021/04/08 04:15:58;;;;;;;1.73;0.60;;;5.00;35.80;;;;;;5071048;28;20025;-75
2021/04/08 04:18:23;;;;;;;1.80;0.88;;;4.90;36.00;;;;;;5071413;28;20025;-75
2021/04/08 04:20:49;;;;;;;0.77;0.77;;;4.90;36.70;;;;;;5076199;28;20028;-75
2021/04/08 04:23:15;;;;;;;1.17;1.00;;;4.80;37.60;;;;;;5071095;28;20110;-76
2021/04/08 04:25:41;;;;;;;1.45;0.90;;;4.80;37.30;;;;;;5071116;28;20036;-76
2021/04/08 04:28:07;;;;;;;8.80;1.52;;;4.60;37.70;;;;;;5072461;28;20107;-75
2021/04/08 04:30:33;;;;;;;0.50;0.50;;;4.60;37.80;;;;;;5071058;28;20458;-75
2021/04/08 04:32:58;;;;;;;2.10;0.80;;;4.60;37.80;;;;;;5075238;28;20069;-75
2021/04/08 04:35:24;;;;;;;0.60;0.60;;;4.50;38.60;;;;;;5076020;28;20036;-75
2021/04/08 04:37:50;;;;;;;0.98;0.60;;;4.30;39.40;;;;;;5076085;28;20028;-75
2021/04/08 04:40:16;;;;;;;1.10;0.90;;;4.30;39.50;;;;;;5076071;28;20024;-75
2021/04/08 04:42:43;;;;;;;1.20;1.10;;;4.30;39.40;;;;;;5075535;28;20037;-76
2021/04/08 04:45:14;;;;;;;0.88;0.88;;;4.30;39.50;;;;;;5074375;28;20402;-75
2021/04/08 04:47:41;;;;;;;1.00;1.00;;;4.30;39.80;;;;;;5076021;28;20056;-75
2021/04/08 04:50:12;;;;;;;1.67;1.55;;;4.20;39.60;;;;;;5074711;28;20029;-75
2021/04/08 04:52:38;;;;;;;2.22;2.00;;;4.20;39.20;;;;;;5075605;28;20040;-75
2021/04/08 04:55:06;;;;;;;2.38;1.80;;;4.30;38.80;;;;;;5074495;28;20021;-75
2021/04/08 04:57:31;;;;;;;3.28;2.58;;;4.40;38.50;;;;;;5074526;28;20039;-75
2021/04/08 04:59:57;;;;;;;2.63;1.73;;;4.50;38.10;;;;;;5072080;28;20009;-75
2021/04/08 05:02:23;;;;;;;3.97;1.60;;;4.60;37.50;;;;;;5072103;28;20502;-75
2021/04/08 05:04:49;;;;;;;3.60;1.58;;;4.70;37.10;;;;;;5074284;28;20509;-75
2021/04/08 05:07:15;;;;;;;1.83;1.65;;;4.80;37.40;;;;;;5074058;28;20055;-75
2021/04/08 05:09:41;;;;;;;2.38;1.73;;;4.80;37.50;;;;;;5075782;28;20033;-75
2021/04/08 05:12:07;;;;;;;1.10;1.08;;;4.80;37.50;;;;;;5075233;28;20552;-75
2021/04/08 05:14:33;;;;;;;1.52;1.20;;;4.80;37.60;;;;;;5075481;28;20025;-75
2021/04/08 05:17:00;;;;;;;1.75;1.35;;;4.70;37.80;;;;;;5075193;28;20028;-75
2021/04/08 05:19:26;;;;;;;1.33;1.15;;;4.80;37.90;;;;;;5075517;28;20028;-76
2021/04/08 05:21:52;;;;;;;1.75;1.65;;;4.80;37.40;;;;;;5075299;28;20024;-75
2021/04/08 05:24:18;;;;;;;3.45;1.58;;;4.80;37.70;;;;;;5074867;28;20098;-76
2021/04/08 05:26:45;;;;;;;1.60;1.50;;;4.80;38.00;;;;;;5073497;28;20032;-76
2021/04/08 05:29:11;;;;;;;1.77;1.65;;;4.90;37.80;;;;;;5074494;28;20046;-75
2021/04/08 05:31:36;;;;;;;5.03;2.03;;;5.00;37.80;;;;;;5074116;28;20071;-75
2021/04/08 05:34:02;;;;;;;2.92;1.27;;;5.00;38.30;;;;;;5074407;28;20032;-75
2021/04/08 05:36:28;;;;;;;2.30;1.60;;;4.90;38.70;;;;;;5074536;28;20070;-75
2021/04/08 05:38:54;;;;;;;3.15;1.65;;;4.90;39.40;;;;;;5074055;28;20028;-74
2021/04/08 05:41:19;;;;;;;2.80;1.80;;;4.90;40.60;;;;;;5073305;28;20405;-75
2021/04/08 05:43:45;;;;;;;3.28;1.63;;;4.90;41.70;;;;;;5074107;28;20016;-75
2021/04/08 05:46:12;;;;;;;2.92;1.92;;;4.80;42.70;;;;;;5074929;28;20520;-76
2021/04/08 05:48:38;;;;;;;5.10;2.17;;;4.80;42.40;;;;;;5073571;28;20024;-75
2021/04/08 05:51:04;;;;;;;2.40;1.58;;;4.90;41.90;;;;;;5074474;28;20031;-75
2021/04/08 05:53:30;;;;;;;2.97;1.92;;;5.00;41.80;;;;;;5073582;28;20024;-75
2021/04/08 05:55:56;;;;;;;4.47;2.35;;;5.10;42.50;;;;;;5072874;28;20028;-75
2021/04/08 05:58:23;;;;;;;9.02;2.22;;;5.10;42.00;;;;;;5065706;28;20075;-76
2021/04/08 06:00:48;;;;;;;6.60;2.53;;;5.10;42.10;;;;;;5053379;28;20028;-75
2021/04/08 06:03:14;;;;;;;3.88;1.75;;;5.20;41.60;;;;;;5054137;28;20074;-75
2021/04/08 06:05:40;;;;;;;7.85;2.35;;;5.20;40.90;;;;;;5053053;28;20116;-75
2021/04/08 06:08:07;;;;;;;2.50;1.98;;;5.30;39.90;;;;;;5053751;28;20021;-75
2021/04/08 06:10:32;;;;;;;1.77;1.48;;;5.40;39.50;;;;;;5054302;28;20032;-75
2021/04/08 06:12:58;;;;;;;4.38;1.70;;;5.50;39.40;;;;;;5054105;28;20037;-75
2021/04/08 06:15:24;;;;;;;2.55;1.67;;;5.60;39.70;;;;;;5054037;28;20055;-75
2021/04/08 06:17:50;;;;;;;7.50;1.42;;;5.60;39.20;;;;;;5052964;28;20025;-75
2021/04/08 06:20:16;;;;;;;3.08;1.80;;;5.70;38.00;;;;;;5072858;28;20029;-75
2021/04/08 06:22:42;;;;;;;4.45;2.00;;;5.80;37.80;;;;;;5073880;28;20051;-75
2021/04/08 06:25:08;;;;;;;2.85;1.80;;;5.80;37.80;;;;;;5091867;28;20028;-75
2021/04/08 06:27:35;;;;;;;5.15;1.95;;;5.90;38.40;;;;;;5092068;28;20024;-78
2021/04/08 06:30:05;;;;;;;4.30;1.95;;;5.90;38.70;;;;;;5074085;28;20070;-75
2021/04/08 06:32:31;;;;;;;2.47;1.73;;;6.00;38.20;;;;;;5072659;28;20124;-75
2021/04/08 06:34:57;;;;;;;3.33;1.77;;;6.10;38.00;;;;;;5073438;28;20111;-75
2021/04/08 06:37:22;;;;;;;5.25;1.15;;;6.10;36.10;;;;;;5073920;28;20013;-75
2021/04/08 06:39:48;;;;;;;4.00;1.30;;;6.20;34.70;;;;;;5073759;28;20454;-75
2021/04/08 06:42:20;;;;;;;2.38;1.60;;;6.30;34.20;;;;;;5072344;28;20410;-75
2021/04/08 06:44:51;;;;;;;1.67;1.42;;;6.30;33.10;;;;;;5073414;28;20453;-75
2021/04/08 06:47:28;;;;;;;5.32;1.50;;;6.40;33.70;;;;;;5073760;28;20021;-75
2021/04/08 06:50:03;;;;;;;2.95;1.23;;;6.50;35.00;;;;;;5073694;28;20382;-75
2021/04/08 06:52:29;;;;;;;2.85;1.33;;;6.60;36.10;;;;;;5072782;28;20020;-75
2021/04/08 06:54:55;;;;;;;5.53;1.27;;;6.60;34.50;;;;;;5066796;28;20024;-79
2021/04/08 06:57:21;;;;;;;2.70;1.38;;;6.60;33.90;;;;;;5052536;28;20025;-78
2021/04/08 06:59:50;;;;;;;3.67;1.50;;;6.60;34.00;;;;;;5064966;28;20024;-79
2021/04/08 07:02:21;;;;;;;4.15;1.48;;;6.60;33.80;;;;;;5072213;28;20079;-79
2021/04/08 07:04:47;;;;;;;1.83;1.35;;;6.70;33.90;;;;;;5098438;27;20024;-78
2021/04/08 07:07:16;;;;;;;5.22;1.50;;;6.70;33.90;;;;;;5072986;28;20028;-78
2021/04/08 07:09:42;;;;;;;7.20;2.08;;;6.80;34.20;;;;;;5072182;28;20043;-79
2021/04/08 07:12:10;;;;;;;1.98;1.80;;;6.80;33.30;;;;;;5072930;28;20074;-79
2021/04/08 07:14:39;;;;;;;4.03;1.98;;;6.80;33.40;;;;;;5072663;28;20024;-78
2021/04/08 07:17:10;;;;;;;10.98;2.22;;;6.80;33.50;;;;;;5071025;28;20012;-75
2021/04/08 07:19:36;;;;;;;4.40;2.33;;;6.90;33.50;;;;;;5072782;28;20500;-75
2021/04/08 07:22:03;;;;;;;4.53;2.20;;;7.00;32.90;;;;;;5071064;28;20028;-75
2021/04/08 07:24:28;;;;;;;3.15;2.08;;;7.00;33.10;;;;;;5074978;28;20451;-75
2021/04/08 07:27:07;;;;;;;3.85;1.80;;;7.00;33.80;;;;;;5077110;28;20019;-76
2021/04/08 07:29:38;;;;;;;4.82;2.28;;;6.90;32.20;;;;;;5075299;28;20066;-76
2021/04/08 07:32:08;;;;;;;9.13;2.35;;;6.90;32.70;;;;;;5071726;28;20082;-75
2021/04/08 07:34:49;;;;;;;5.18;2.85;;;6.90;33.20;;;;;;5070792;28;20107;-75
2021/04/08 07:37:20;;;;;;;5.78;2.28;;;7.00;34.60;;;;;;5071716;28;20078;-75
2021/04/08 07:39:46;;;;;;;4.33;3.23;;;7.10;35.10;;;;;;5072593;28;20498;-75
2021/04/08 07:42:17;;;;;;;10.93;3.08;;;7.20;34.80;;;;;;5070535;28;20047;-75
2021/04/08 07:44:48;;;;;;;5.45;3.15;;;7.20;33.80;;;;;;5073586;28;20450;-75
2021/04/08 07:47:45;;;;;;;6.75;2.40;;;7.20;34.10;;;;;;5064383;28;20040;-76
2021/04/08 07:50:15;;;;;;;3.83;2.28;;;7.20;34.40;;;;;;5071311;28;20725;-76
2021/04/08 07:52:44;;;;;;;4.07;2.38;;;7.30;35.00;;;;;;5073342;28;20027;-75
2021/04/08 07:55:20;;;;;;;5.75;2.47;;;7.40;35.10;;;;;;5071459;28;20446;-75
2021/04/08 07:57:48;;;;;;;4.85;2.40;;;7.30;34.30;;;;;;5063832;28;20035;-75
2021/04/08 08:00:33;;;;;;;5.72;2.10;;;7.40;36.00;;;;;;5072281;28;20024;-75
2021/04/08 08:03:25;;;;;;;3.80;1.98;;;7.40;35.90;;;;;;5071641;28;20608;-76
2021/04/08 08:05:57;;;;;;;3.60;2.53;;;7.50;36.50;;;;;;5074603;28;20043;-75
2021/04/08 08:08:27;;;;;;;3.38;2.35;;;7.50;36.00;;;;;;5074546;28;20025;-75
2021/04/08 08:10:58;;;;;;;3.40;2.38;;;7.50;36.00;;;;;;5078365;28;20024;-76
2021/04/08 08:13:39;;;;;;;6.80;2.35;;;7.60;36.30;;;;;;5073928;28;20445;-75
2021/04/08 08:16:06;;;;;;;4.88;2.42;;;7.70;36.40;;;;;;5077103;28;20020;-75
2021/04/08 08:18:33;;;;;;;9.95;2.50;;;7.70;35.20;;;;;;5075496;28;20024;-75
2021/04/08 08:21:07;;;;;;;7.50;2.45;;;7.70;35.60;;;;;;5075478;28;20032;-78
2021/04/08 08:23:53;;;;;;;3.50;2.35;;;7.80;36.50;;;;;;5076500;28;20110;-78
2021/04/08 08:26:36;;;;;;;5.47;2.40;;;7.90;37.40;;;;;;5076532;28;20024;-78
2021/04/08 08:29:11;;;;;;;4.68;2.72;;;8.00;37.50;;;;;;5076341;28;20025;-78
2021/04/08 08:31:46;;;;;;;4.53;2.55;;;8.10;37.80;;;;;;5076472;28;20020;-78
2021/04/08 08:34:16;;;;;;;5.95;2.20;;;8.20;36.80;;;;;;5075016;28;20485;-79
2021/04/08 08:36:44;;;;;;;11.27;1.92;;;8.20;33.70;;;;;;5074891;28;20583;-78
2021/04/08 08:39:12;;;;;;;2.53;1.90;;;8.40;34.70;;;;;;5076302;28;20512;-78
2021/04/08 08:41:39;;;;;;;2.28;1.85;;;8.40;33.30;;;;;;5074652;28;20021;-78
2021/04/08 08:44:07;;;;;;;3.22;2.05;;;8.50;32.60;;;;;;5075988;28;20048;-78
2021/04/08 08:46:43;;;;;;;3.05;1.92;;;8.50;33.30;;;;;;5075883;28;20426;-78
2021/04/08 08:49:14;;;;;;;3.83;2.10;;;8.50;32.30;;;;;;5074453;28;20111;-78
2021/04/08 08:51:41;;;;;;;3.33;1.67;;;8.50;31.20;;;;;;5075945;28;20485;-78
2021/04/08 08:54:09;;;;;;;3.22;1.80;;;8.60;33.30;;;;;;5076014;28;20110;-78
2021/04/08 08:56:35;;;;;;;6.07;2.28;;;8.60;32.20;;;;;;5075748;28;20036;-79
2021/04/08 08:59:01;;;;;;;3.42;2.03;;;8.70;33.00;;;;;;5075829;28;20024;-78
2021/04/08 09:01:28;;;;;;;6.68;1.60;;;8.70;32.80;;;;;;5073931;28;20025;-78
2021/04/08 09:03:53;;;;;;;4.38;1.92;;;8.90;34.40;;;;;;5074704;28;20032;-78
2021/04/08 09:06:21;;;;;;;4.25;1.98;;;9.00;33.50;;;;;;5074990;28;20036;-78
2021/04/08 09:08:53;;;;;;;6.60;2.20;;;9.10;33.50;;;;;;5072803;28;20021;-78
2021/04/08 09:11:30;;;;;;;;;;;9.20;34.10;;;;;;5074661;28;20035;-78
2021/04/08 09:13:57;;;;;;;7.70;1.90;;;9.30;33.90;;;;;;5075244;28;19904;-78
2021/04/08 09:16:23;;;;;;;2.63;1.27;;;9.40;33.30;;;;;;5073453;28;20043;-78
2021/04/08 09:18:57;;;;;;;5.38;1.67;;;9.60;33.10;;;;;;5076079;28;20020;-74
2021/04/08 09:21:24;;;;;;;2.75;1.48;;;9.60;31.90;;;;;;5082077;28;20044;-74
2021/04/08 09:24:09;;;;;;;3.40;1.50;;;9.70;30.30;;;;;;5085165;28;20482;-75
2021/04/08 09:26:39;;;;;;;3.70;0.98;;;9.90;30.00;;;;;;5074912;28;20070;-74
2021/04/08 09:29:07;;;;;;;3.00;1.10;;;10.00;29.20;;;;;;5064687;28;20017;-74
2021/04/08 09:31:34;;;;;;;1.90;1.10;;;10.10;28.60;;;;;;5067361;28;20741;-74
2021/04/08 09:34:02;;;;;;;4.57;0.98;;;10.30;28.90;;;;;;5069971;28;20025;-74
2021/04/08 09:36:41;;;;;;;6.53;1.20;;;10.30;28.40;;;;;;5074384;28;20628;-74
2021/04/08 09:39:09;;;;;;;3.83;1.20;;;10.40;28.00;;;;;;5069552;28;20025;-75
2021/04/08 09:41:46;;;;;;;1.10;1.00;;;10.50;27.90;;;;;;5070741;28;20025;-74
2021/04/08 09:44:13;;;;;;;4.93;1.35;;;10.50;27.90;;;;;;5069339;28;20799;-75
2021/04/08 09:46:41;;;;;;;2.25;1.30;;;10.50;28.20;;;;;;5078212;28;20101;-75
2021/04/08 09:49:10;;;;;;;4.57;1.15;;;10.50;27.90;;;;;;5071410;28;20044;-75
2021/04/08 09:51:44;;;;;;;5.30;1.40;;;10.50;28.10;;;;;;5071192;28;20032;-75
2021/04/08 09:54:15;;;;;;;5.28;1.33;;;10.60;28.40;;;;;;5070138;28;20631;-74
2021/04/08 09:56:54;;;;;;;2.63;1.02;;;10.80;28.50;;;;;;5069259;28;20111;-75
2021/04/08 09:59:22;;;;;;;12.63;1.27;;;10.90;28.20;;;;;;5069924;28;20024;-75
2021/04/08 10:01:48;;;;;;;1.45;1.35;;;10.90;28.00;;;;;;5072075;28;20021;-74
2021/04/08 10:04:17;;;;;;;1.67;1.20;;;11.00;27.90;;;;;;5069871;28;20020;-74
2021/04/08 10:06:44;;;;;;;3.40;1.23;;;11.00;26.70;;;;;;5067098;28;20028;-74
2021/04/08 10:09:12;;;;;;;2.75;1.60;;;11.10;26.40;;;;;;5068240;28;20075;-75
2021/04/08 10:11:38;;;;;;;2.60;1.40;;;11.10;26.80;;;;;;5070687;28;20028;-75
2021/04/08 10:14:18;;;;;;;1.50;1.40;;;11.10;25.70;;;;;;5069179;28;20025;-74
2021/04/08 10:16:44;;;;;;;2.55;1.40;;;11.20;25.70;;;;;;5072570;28;20024;-75
2021/04/08 10:19:10;;;;;;;2.30;1.52;;;11.30;24.60;;;;;;5074082;28;20083;-74
2021/04/08 10:21:37;;;;;;;2.67;1.60;;;11.40;25.30;;;;;;5073123;28;20033;-74
2021/04/08 10:24:16;;;;;;;2.30;2.10;;;11.40;24.80;;;;;;5069147;28;20040;-75
2021/04/08 10:26:42;;;;;;;2.05;1.77;;;11.50;24.40;;;;;;5062686;28;20020;-75
2021/04/08 10:29:07;;;;;;;1.98;1.77;;;11.50;25.00;;;;;;5067308;28;20021;-75
2021/04/08 10:31:43;;;;;;;10.88;2.70;;;11.60;25.30;;;;;;5069871;28;20031;-75
2021/04/08 10:34:18;;;;;;;4.47;2.47;;;11.70;25.10;;;;;;5069748;28;20032;-75
2021/04/08 10:36:53;;;;;;;2.90;2.67;;;11.70;25.70;;;;;;5070453;28;20114;-75
2021/04/08 10:39:20;;;;;;;5.30;2.38;;;11.70;25.50;;;;;;5066489;28;20027;-75
2021/04/08 10:41:57;;;;;;;2.45;2.25;;;11.80;26.10;;;;;;5075280;28;20040;-75
2021/04/08 10:44:30;;;;;;;2.42;2.15;;;11.90;26.70;;;;;;5075229;28;20470;-75
2021/04/08 10:47:00;;;;;;;8.35;2.63;;;12.00;26.80;;;;;;5073797;28;20197;-74
2021/04/08 10:49:35;;;;;;;3.17;2.58;;;12.10;26.80;;;;;;5067934;28;20052;-74
2021/04/08 10:52:10;;;;;;;3.28;2.85;;;12.10;26.00;;;;;;5069638;28;20032;-74
2021/04/08 10:54:39;;;;;;;3.97;2.60;;;12.20;26.40;;;;;;5068056;28;20032;-74
2021/04/08 10:57:06;;;;;;;2.95;2.63;;;12.30;27.20;;;;;;5072204;28;20111;-74
2021/04/08 10:59:32;;;;;;;5.10;3.10;;;12.40;27.60;;;;;;5065251;28;20033;-74
2021/04/08 11:02:00;;;;;;;4.35;2.90;;;12.60;27.40;;;;;;5068830;28;20024;-74
2021/04/08 11:04:26;;;;;;;5.22;3.00;;;12.80;27.60;;;;;;5075108;28;20066;-74
2021/04/08 11:06:56;;;;;;;2.80;2.60;;;13.00;26.60;;;;;;5068071;28;20021;-73
2021/04/08 11:09:24;;;;;;;3.13;2.78;;;13.00;26.30;;;;;;5068008;28;20016;-75
2021/04/08 11:11:51;;;;;;;4.47;2.55;;;13.00;25.90;;;;;;5062926;28;20094;-75
2021/04/08 11:14:24;;;;;;;7.65;2.30;;;13.10;26.20;;;;;;5069528;28;20016;-74
2021/04/08 11:16:57;;;;;;;4.35;2.95;;;13.10;26.50;;;;;;5072424;28;20054;-75
2021/04/08 11:19:23;;;;;;;3.25;2.10;;;13.20;27.20;;;;;;5070889;28;20017;-75
2021/04/08 11:21:50;;;;;;;5.63;2.47;;;13.30;27.80;;;;;;5074119;28;20054;-75
2021/04/08 11:24:16;;;;;;;7.68;2.50;;;13.30;27.80;;;;;;5069070;28;20143;-75
2021/04/08 11:26:49;;;;;;;4.07;2.30;;;13.30;27.60;;;;;;5077637;28;20016;-74
2021/04/08 11:29:26;;;;;;;6.30;1.95;;;13.50;28.10;;;;;;5071695;28;20474;-75
2021/04/08 11:32:10;;;;;;;5.68;1.88;;;13.60;26.90;;;;;;5069601;28;20486;-75
2021/04/08 11:34:47;;;;;;;2.88;2.65;;;13.50;26.20;;;;;;5070300;28;20482;-75
2021/04/08 11:37:15;;;;;;;3.97;2.03;;;13.60;26.40;;;;;;5071606;28;20020;-74
2021/04/08 11:39:46;;;;;;;3.80;2.10;;;13.70;26.50;;;;;;5072807;28;20027;-75
2021/04/08 11:42:13;;;;;;;2.90;2.40;;;13.80;26.00;;;;;;5071852;28;20467;-74
2021/04/08 11:44:39;;;;;;;2.92;2.13;;;13.90;26.90;;;;;;5071153;28;20111;-75
2021/04/08 11:47:12;;;;;;;3.15;2.33;;;14.00;27.50;;;;;;5078920;28;20820;-75
2021/04/08 11:49:58;;;;;;;5.05;2.03;;;14.10;27.20;;;;;;5066969;28;20060;-75
2021/04/08 11:52:27;;;;;;;1.85;1.75;;;14.10;27.60;;;;;;5069164;28;20478;-75
2021/04/08 11:55:10;;;;;;;2.53;2.00;;;14.20;28.20;;;;;;5068293;28;20037;-74
2021/04/08 11:57:35;;;;;;;;;;;14.30;28.10;;;;;;5066045;28;20070;-75
2021/04/08 12:00:13;;;;;;;8.70;2.92;;;14.50;28.50;;;;;;5070819;28;19904;-75
2021/04/08 12:02:40;;;;;;;5.47;2.55;;;14.50;29.50;;;;;;5074561;28;20044;-75
2021/04/08 12:05:10;;;;;;;4.18;3.10;;;14.40;29.60;;;;;;5075297;28;20102;-75
2021/04/08 12:07:48;;;;;;;3.78;2.35;;;14.70;30.70;;;;;;5062265;28;20397;-75
2021/04/08 12:10:28;;;;;;;4.32;2.65;;;14.80;30.80;;;;;;5068557;28;20138;-75
2021/04/08 12:13:11;;;;;;;2.47;2.00;;;14.90;29.10;;;;;;5061165;28;20112;-75
2021/04/08 12:15:42;;;;;;;2.53;2.33;;;14.90;29.10;;;;;;5070115;28;20176;-75
2021/04/08 12:18:13;;;;;;;7.70;2.17;;;15.10;29.70;;;;;;5065405;28;20795;-74
2021/04/08 12:20:39;;;;;;;5.07;1.85;;;15.10;27.10;;;;;;5071206;28;20532;-74
2021/04/08 12:23:13;;;;;;;4.40;2.13;;;15.10;27.40;;;;;;5073793;28;20028;-74
2021/04/08 12:25:51;;;;;;;2.15;1.95;;;15.20;26.90;;;;;;5074696;28;20037;-75
2021/04/08 12:28:18;;;;;;;3.92;1.98;;;15.30;26.70;;;;;;5072175;28;20706;-75
2021/04/08 12:31:00;;;;;;;8.38;1.88;;;15.20;25.90;;;;;;5067350;28;20494;-74
2021/04/08 12:33:35;;;;;;;2.65;2.08;;;15.30;26.50;;;;;;5067695;28;20037;-75
2021/04/08 12:36:07;;;;;;;2.75;1.90;;;15.40;27.10;;;;;;5062565;28;20021;-73
2021/04/08 12:38:33;;;;;;;4.63;2.25;;;15.60;27.60;;;;;;5070403;28;20059;-74
2021/04/08 12:41:00;;;;;;;3.58;2.05;;;15.60;26.00;;;;;;5070386;28;20027;-75
2021/04/08 12:43:27;;;;;;;5.05;2.40;;;15.70;26.50;;;;;;5075252;28;20029;-75
2021/04/08 12:45:53;;;;;;;4.07;2.38;;;15.70;26.20;;;;;;5075846;28;20541;-75
2021/04/08 12:48:19;;;;;;;6.35;2.50;;;15.70;27.20;;;;;;5076296;28;20045;-73
2021/04/08 12:50:48;;;;;;;3.97;1.90;;;15.80;28.10;;;;;;5070441;28;20032;-73
2021/04/08 12:53:16;;;;;;;4.10;2.40;;;15.70;28.60;;;;;;5072784;28;20032;-73
2021/04/08 12:55:42;;;;;;;6.75;2.17;;;15.90;27.70;;;;;;5073447;28;20446;-73
2021/04/08 12:58:09;;;;;;;4.88;2.15;;;15.90;26.90;;;;;;5074052;28;20069;-73
2021/04/08 13:00:36;;;;;;;5.43;2.13;;;16.00;27.60;;;;;;5078055;28;20107;-73
2021/04/08 13:03:03;;;;;;;4.05;3.00;;;16.10;27.40;;;;;;5079569;28;20489;-73
2021/04/08 13:05:29;;;;;;;3.13;2.13;;;16.20;27.80;;;;;;5079200;28;20024;-74
2021/04/08 13:07:54;;;;;;;5.10;2.20;;;16.30;27.40;;;;;;5078955;28;20031;-73